sensor_id;sensor_type;location;lat;lon;timestamp;P1;durP1;ratioP1;P2;durP2;ratioP2
10523;SDS011;5310;48.638;9.060;2022-12-20T00:01:53;1.00;;;1.00;;
10523;SDS011;5310;48.638;9.060;2022-12-20T00:04:19;1.10;;;1.10;;
10523;SDS011;5310;48.638;9.060;2022-12-20T00:06:45;1.00;;;1.00;;
10523;SDS011;5310;48.638;9.060;2022-12-20T00:09:11;1.10;;;1.10;;
10523;SDS011;5310;48.638;9.060;2022-12-20T00:11:37;1.10;;;1.10;;
10523;SDS011;5310;48.638;9.060;2022-12-20T00:14:05;1.10;;;1.10;;
10523;SDS011;5310;48.638;9.060;2022-12-20T00:16:31;1.10;;;1.10;;
10523;SDS011;5310;48.638;9.060;2022-12-20T00:18:58;1.10;;;1.10;;
10523;SDS011;5310;48.638;9.060;2022-12-20T00:21:25;1.10;;;1.10;;
10523;SDS011;5310;48.638;9.060;2022-12-20T00:23:51;1.10;;;1.10;;
10523;SDS011;5310;48.638;9.060;2022-12-20T00:26:19;1.10;;;1.10;;
10523;SDS011;5310;48.638;9.060;2022-12-20T00:28:45;1.10;;;1.10;;
10523;SDS011;5310;48.638;9.060;2022-12-20T00:31:12;1.10;;;1.10;;
10523;SDS011;5310;48.638;9.060;2022-12-20T00:33:40;1.10;;;1.10;;
10523;SDS011;5310;48.638;9.060;2022-12-20T00:36:08;1.10;;;1.10;;
10523;SDS011;5310;48.638;9.060;2022-12-20T00:38:34;1.10;;;1.10;;
10523;SDS011;5310;48.638;9.060;2022-12-20T00:41:04;1.10;;;1.10;;
10523;SDS011;5310;48.638;9.060;2022-12-20T00:43:31;1.10;;;1.10;;
10523;SDS011;5310;48.638;9.060;2022-12-20T00:45:57;1.10;;;1.10;;
10523;SDS011;5310;48.638;9.060;2022-12-20T00:48:24;1.10;;;1.10;;
10523;SDS011;5310;48.638;9.060;2022-12-20T00:50:50;1.00;;;1.00;;
10523;SDS011;5310;48.638;9.060;2022-12-20T00:53:16;1.10;;;1.10;;
10523;SDS011;5310;48.638;9.060;2022-12-20T00:55:42;1.00;;;1.00;;
10523;SDS011;5310;48.638;9.060;2022-12-20T00:58:08;1.10;;;1.10;;
10523;SDS011;5310;48.638;9.060;2022-12-20T01:00:35;1.10;;;1.10;;
10523;SDS011;5310;48.638;9.060;2022-12-20T01:03:01;1.10;;;1.10;;
10523;SDS011;5310;48.638;9.060;2022-12-20T01:05:27;1.10;;;1.10;;
10523;SDS011;5310;48.638;9.060;2022-12-20T01:07:53;1.10;;;1.10;;
10523;SDS011;5310;48.638;9.060;2022-12-20T01:10:18;1.10;;;1.10;;
10523;SDS011;5310;48.638;9.060;2022-12-20T01:12:44;1.10;;;1.10;;
10523;SDS011;5310;48.638;9.060;2022-12-20T01:15:10;1.10;;;1.10;;
10523;SDS011;5310;48.638;9.060;2022-12-20T01:17:36;1.10;;;1.10;;
10523;SDS011;5310;48.638;9.060;2022-12-20T01:20:02;1.10;;;1.10;;
10523;SDS011;5310;48.638;9.060;2022-12-20T01:22:29;1.10;;;1.10;;
10523;SDS011;5310;48.638;9.060;2022-12-20T01:24:55;1.10;;;1.10;;
10523;SDS011;5310;48.638;9.060;2022-12-20T01:27:21;1.20;;;1.20;;
10523;SDS011;5310;48.638;9.060;2022-12-20T01:29:47;1.10;;;1.10;;
10523;SDS011;5310;48.638;9.060;2022-12-20T01:32:13;1.10;;;1.10;;
10523;SDS011;5310;48.638;9.060;2022-12-20T01:34:38;1.10;;;1.10;;
10523;SDS011;5310;48.638;9.060;2022-12-20T01:37:04;1.10;;;1.10;;
10523;SDS011;5310;48.638;9.060;2022-12-20T01:39:30;1.10;;;1.10;;
10523;SDS011;5310;48.638;9.060;2022-12-20T01:41:56;1.10;;;1.10;;
10523;SDS011;5310;48.638;9.060;2022-12-20T01:46:48;1.00;;;1.00;;
10523;SDS011;5310;48.638;9.060;2022-12-20T01:49:21;1.10;;;1.10;;
10523;SDS011;5310;48.638;9.060;2022-12-20T01:51:50;1.10;;;1.10;;
10523;SDS011;5310;48.638;9.060;2022-12-20T01:54:23;1.10;;;1.10;;
10523;SDS011;5310;48.638;9.060;2022-12-20T01:56:51;1.10;;;1.10;;
10523;SDS011;5310;48.638;9.060;2022-12-20T01:59:20;1.10;;;1.10;;
10523;SDS011;5310;48.638;9.060;2022-12-20T02:01:47;1.10;;;1.10;;
10523;SDS011;5310;48.638;9.060;2022-12-20T02:04:13;1.10;;;1.10;;
10523;SDS011;5310;48.638;9.060;2022-12-20T02:06:39;1.10;;;1.10;;
10523;SDS011;5310;48.638;9.060;2022-12-20T02:09:04;1.10;;;1.10;;
10523;SDS011;5310;48.638;9.060;2022-12-20T02:11:36;1.10;;;1.10;;
10523;SDS011;5310;48.638;9.060;2022-12-20T02:23:33;1.00;;;1.00;;
10523;SDS011;5310;48.638;9.060;2022-12-20T02:31:47;1.07;;;1.07;;
10523;SDS011;5310;48.638;9.060;2022-12-20T02:34:34;1.10;;;1.10;;
10523;SDS011;5310;48.638;9.060;2022-12-20T02:37:01;1.10;;;1.10;;
10523;SDS011;5310;48.638;9.060;2022-12-20T02:39:27;1.10;;;1.10;;
10523;SDS011;5310;48.638;9.060;2022-12-20T02:41:56;1.10;;;1.10;;
10523;SDS011;5310;48.638;9.060;2022-12-20T02:44:26;1.20;;;1.20;;
10523;SDS011;5310;48.638;9.060;2022-12-20T02:47:17;1.10;;;1.10;;
10523;SDS011;5310;48.638;9.060;2022-12-20T02:49:47;1.00;;;1.00;;
10523;SDS011;5310;48.638;9.060;2022-12-20T02:52:14;1.10;;;1.10;;
10523;SDS011;5310;48.638;9.060;2022-12-20T02:54:40;1.10;;;1.10;;
10523;SDS011;5310;48.638;9.060;2022-12-20T02:59:40;1.10;;;1.10;;
10523;SDS011;5310;48.638;9.060;2022-12-20T03:02:28;1.10;;;1.10;;
10523;SDS011;5310;48.638;9.060;2022-12-20T03:05:15;1.10;;;1.10;;
10523;SDS011;5310;48.638;9.060;2022-12-20T03:07:42;1.10;;;1.10;;
10523;SDS011;5310;48.638;9.060;2022-12-20T03:10:08;1.10;;;1.10;;
10523;SDS011;5310;48.638;9.060;2022-12-20T03:12:34;1.00;;;1.00;;
10523;SDS011;5310;48.638;9.060;2022-12-20T03:15:00;1.10;;;1.10;;
10523;SDS011;5310;48.638;9.060;2022-12-20T03:17:25;1.10;;;1.10;;
10523;SDS011;5310;48.638;9.060;2022-12-20T03:19:51;1.10;;;1.10;;
10523;SDS011;5310;48.638;9.060;2022-12-20T03:22:17;1.10;;;1.10;;
10523;SDS011;5310;48.638;9.060;2022-12-20T03:24:43;1.10;;;1.10;;
10523;SDS011;5310;48.638;9.060;2022-12-20T03:27:09;1.10;;;1.10;;
10523;SDS011;5310;48.638;9.060;2022-12-20T03:29:35;1.10;;;1.10;;
10523;SDS011;5310;48.638;9.060;2022-12-20T03:32:01;1.10;;;1.10;;
10523;SDS011;5310;48.638;9.060;2022-12-20T03:34:27;1.10;;;1.10;;
10523;SDS011;5310;48.638;9.060;2022-12-20T03:36:52;1.10;;;1.10;;
10523;SDS011;5310;48.638;9.060;2022-12-20T03:39:18;1.10;;;1.10;;
10523;SDS011;5310;48.638;9.060;2022-12-20T03:41:44;1.10;;;1.10;;
10523;SDS011;5310;48.638;9.060;2022-12-20T03:44:10;1.10;;;1.10;;
10523;SDS011;5310;48.638;9.060;2022-12-20T03:46:36;1.10;;;1.10;;
10523;SDS011;5310;48.638;9.060;2022-12-20T03:49:02;1.10;;;1.10;;
10523;SDS011;5310;48.638;9.060;2022-12-20T03:51:28;1.10;;;1.10;;
10523;SDS011;5310;48.638;9.060;2022-12-20T03:53:53;1.10;;;1.10;;
10523;SDS011;5310;48.638;9.060;2022-12-20T03:56:19;1.10;;;1.10;;
10523;SDS011;5310;48.638;9.060;2022-12-20T03:58:45;1.10;;;1.10;;
10523;SDS011;5310;48.638;9.060;2022-12-20T04:01:22;1.10;;;1.10;;
10523;SDS011;5310;48.638;9.060;2022-12-20T04:03:51;1.10;;;1.10;;
10523;SDS011;5310;48.638;9.060;2022-12-20T04:06:18;1.10;;;1.10;;
10523;SDS011;5310;48.638;9.060;2022-12-20T04:08:44;1.10;;;1.10;;
10523;SDS011;5310;48.638;9.060;2022-12-20T04:11:10;1.00;;;1.00;;
10523;SDS011;5310;48.638;9.060;2022-12-20T04:13:45;1.10;;;1.10;;
10523;SDS011;5310;48.638;9.060;2022-12-20T04:16:13;1.07;;;1.07;;
10523;SDS011;5310;48.638;9.060;2022-12-20T04:18:40;1.10;;;1.10;;
10523;SDS011;5310;48.638;9.060;2022-12-20T04:21:06;1.10;;;1.10;;
10523;SDS011;5310;48.638;9.060;2022-12-20T04:23:33;1.10;;;1.10;;
10523;SDS011;5310;48.638;9.060;2022-12-20T04:26:00;1.10;;;1.10;;
10523;SDS011;5310;48.638;9.060;2022-12-20T04:28:27;1.10;;;1.10;;
10523;SDS011;5310;48.638;9.060;2022-12-20T04:30:52;1.10;;;1.10;;
10523;SDS011;5310;48.638;9.060;2022-12-20T04:33:18;1.10;;;1.10;;
10523;SDS011;5310;48.638;9.060;2022-12-20T04:35:44;1.10;;;1.10;;
10523;SDS011;5310;48.638;9.060;2022-12-20T04:38:10;1.10;;;1.10;;
10523;SDS011;5310;48.638;9.060;2022-12-20T04:40:35;1.00;;;1.00;;
10523;SDS011;5310;48.638;9.060;2022-12-20T04:43:01;1.10;;;1.10;;
10523;SDS011;5310;48.638;9.060;2022-12-20T04:45:27;1.10;;;1.10;;
10523;SDS011;5310;48.638;9.060;2022-12-20T04:47:53;1.10;;;1.10;;
10523;SDS011;5310;48.638;9.060;2022-12-20T04:50:19;1.10;;;1.10;;
10523;SDS011;5310;48.638;9.060;2022-12-20T04:52:45;1.10;;;1.10;;
10523;SDS011;5310;48.638;9.060;2022-12-20T04:55:30;1.10;;;1.10;;
10523;SDS011;5310;48.638;9.060;2022-12-20T04:57:55;1.10;;;1.10;;
10523;SDS011;5310;48.638;9.060;2022-12-20T05:00:21;1.10;;;1.10;;
10523;SDS011;5310;48.638;9.060;2022-12-20T05:02:47;1.00;;;1.00;;
10523;SDS011;5310;48.638;9.060;2022-12-20T05:05:13;1.10;;;1.10;;
10523;SDS011;5310;48.638;9.060;2022-12-20T05:07:38;1.10;;;1.10;;
10523;SDS011;5310;48.638;9.060;2022-12-20T05:10:04;1.10;;;1.10;;
10523;SDS011;5310;48.638;9.060;2022-12-20T05:12:30;1.10;;;1.10;;
10523;SDS011;5310;48.638;9.060;2022-12-20T05:14:56;1.10;;;1.10;;
10523;SDS011;5310;48.638;9.060;2022-12-20T05:17:22;1.10;;;1.10;;
10523;SDS011;5310;48.638;9.060;2022-12-20T05:19:47;1.10;;;1.10;;
10523;SDS011;5310;48.638;9.060;2022-12-20T05:22:13;1.10;;;1.10;;
10523;SDS011;5310;48.638;9.060;2022-12-20T05:24:58;1.10;;;1.10;;
10523;SDS011;5310;48.638;9.060;2022-12-20T05:27:42;1.10;;;1.10;;
10523;SDS011;5310;48.638;9.060;2022-12-20T05:30:09;1.10;;;1.10;;
10523;SDS011;5310;48.638;9.060;2022-12-20T05:32:35;1.07;;;1.07;;
10523;SDS011;5310;48.638;9.060;2022-12-20T05:35:00;1.10;;;1.10;;
10523;SDS011;5310;48.638;9.060;2022-12-20T05:37:26;1.10;;;1.10;;
10523;SDS011;5310;48.638;9.060;2022-12-20T05:39:52;1.00;;;1.00;;
10523;SDS011;5310;48.638;9.060;2022-12-20T05:42:17;1.10;;;1.10;;
10523;SDS011;5310;48.638;9.060;2022-12-20T05:44:44;1.00;;;1.00;;
10523;SDS011;5310;48.638;9.060;2022-12-20T05:47:10;1.00;;;1.00;;
10523;SDS011;5310;48.638;9.060;2022-12-20T05:49:35;1.10;;;1.10;;
10523;SDS011;5310;48.638;9.060;2022-12-20T05:52:01;1.10;;;1.10;;
10523;SDS011;5310;48.638;9.060;2022-12-20T05:54:27;1.10;;;1.10;;
10523;SDS011;5310;48.638;9.060;2022-12-20T05:56:53;1.10;;;1.10;;
10523;SDS011;5310;48.638;9.060;2022-12-20T05:59:19;1.00;;;1.00;;
10523;SDS011;5310;48.638;9.060;2022-12-20T06:01:45;1.10;;;1.10;;
10523;SDS011;5310;48.638;9.060;2022-12-20T06:04:11;1.10;;;1.10;;
10523;SDS011;5310;48.638;9.060;2022-12-20T06:06:37;1.10;;;1.10;;
10523;SDS011;5310;48.638;9.060;2022-12-20T06:09:03;1.10;;;1.10;;
10523;SDS011;5310;48.638;9.060;2022-12-20T06:11:29;1.10;;;1.10;;
10523;SDS011;5310;48.638;9.060;2022-12-20T06:13:55;1.07;;;1.07;;
10523;SDS011;5310;48.638;9.060;2022-12-20T06:16:21;1.00;;;1.00;;
10523;SDS011;5310;48.638;9.060;2022-12-20T06:18:47;1.10;;;1.10;;
10523;SDS011;5310;48.638;9.060;2022-12-20T06:21:14;1.00;;;1.00;;
10523;SDS011;5310;48.638;9.060;2022-12-20T06:23:39;1.10;;;1.10;;
10523;SDS011;5310;48.638;9.060;2022-12-20T06:26:05;1.10;;;1.10;;
10523;SDS011;5310;48.638;9.060;2022-12-20T06:28:33;1.10;;;1.10;;
10523;SDS011;5310;48.638;9.060;2022-12-20T06:30:59;1.10;;;1.10;;
10523;SDS011;5310;48.638;9.060;2022-12-20T06:33:24;1.10;;;1.10;;
10523;SDS011;5310;48.638;9.060;2022-12-20T06:35:50;1.10;;;1.10;;
10523;SDS011;5310;48.638;9.060;2022-12-20T06:38:16;1.10;;;1.10;;
10523;SDS011;5310;48.638;9.060;2022-12-20T06:40:42;1.10;;;1.10;;
10523;SDS011;5310;48.638;9.060;2022-12-20T06:43:08;1.10;;;1.10;;
10523;SDS011;5310;48.638;9.060;2022-12-20T06:45:34;1.10;;;1.10;;
10523;SDS011;5310;48.638;9.060;2022-12-20T06:48:00;1.00;;;1.00;;
10523;SDS011;5310;48.638;9.060;2022-12-20T06:50:26;1.00;;;1.00;;
10523;SDS011;5310;48.638;9.060;2022-12-20T06:52:52;1.10;;;1.10;;
10523;SDS011;5310;48.638;9.060;2022-12-20T06:55:18;1.00;;;1.00;;
10523;SDS011;5310;48.638;9.060;2022-12-20T06:57:44;1.10;;;1.10;;
10523;SDS011;5310;48.638;9.060;2022-12-20T07:00:10;1.00;;;1.00;;
10523;SDS011;5310;48.638;9.060;2022-12-20T07:02:36;1.10;;;1.10;;
10523;SDS011;5310;48.638;9.060;2022-12-20T07:05:02;1.00;;;1.00;;
10523;SDS011;5310;48.638;9.060;2022-12-20T07:07:28;1.10;;;1.10;;
10523;SDS011;5310;48.638;9.060;2022-12-20T07:09:54;1.00;;;1.00;;
10523;SDS011;5310;48.638;9.060;2022-12-20T07:12:19;1.10;;;1.10;;
10523;SDS011;5310;48.638;9.060;2022-12-20T07:14:45;1.00;;;1.00;;
10523;SDS011;5310;48.638;9.060;2022-12-20T07:17:11;1.00;;;1.00;;
10523;SDS011;5310;48.638;9.060;2022-12-20T07:19:37;1.10;;;1.10;;
10523;SDS011;5310;48.638;9.060;2022-12-20T07:22:03;1.10;;;1.10;;
10523;SDS011;5310;48.638;9.060;2022-12-20T07:24:29;1.00;;;1.00;;
10523;SDS011;5310;48.638;9.060;2022-12-20T07:26:55;1.10;;;1.10;;
10523;SDS011;5310;48.638;9.060;2022-12-20T07:29:21;1.10;;;1.10;;
10523;SDS011;5310;48.638;9.060;2022-12-20T07:31:47;1.00;;;1.00;;
10523;SDS011;5310;48.638;9.060;2022-12-20T07:34:13;1.00;;;1.00;;
10523;SDS011;5310;48.638;9.060;2022-12-20T07:36:39;1.10;;;1.10;;
10523;SDS011;5310;48.638;9.060;2022-12-20T07:39:05;1.00;;;1.00;;
10523;SDS011;5310;48.638;9.060;2022-12-20T07:41:31;1.00;;;1.00;;
10523;SDS011;5310;48.638;9.060;2022-12-20T07:43:57;1.00;;;1.00;;
10523;SDS011;5310;48.638;9.060;2022-12-20T07:46:23;1.00;;;1.00;;
10523;SDS011;5310;48.638;9.060;2022-12-20T07:48:49;1.10;;;1.10;;
10523;SDS011;5310;48.638;9.060;2022-12-20T07:51:16;1.10;;;1.10;;
10523;SDS011;5310;48.638;9.060;2022-12-20T07:53:49;1.00;;;1.00;;
10523;SDS011;5310;48.638;9.060;2022-12-20T07:56:32;1.00;;;1.00;;
10523;SDS011;5310;48.638;9.060;2022-12-20T07:59:00;1.00;;;1.00;;
10523;SDS011;5310;48.638;9.060;2022-12-20T08:01:27;1.07;;;1.07;;
10523;SDS011;5310;48.638;9.060;2022-12-20T08:03:56;1.10;;;1.10;;
10523;SDS011;5310;48.638;9.060;2022-12-20T08:06:35;1.00;;;1.00;;
10523;SDS011;5310;48.638;9.060;2022-12-20T08:09:01;1.00;;;1.00;;
10523;SDS011;5310;48.638;9.060;2022-12-20T08:11:29;1.00;;;1.00;;
10523;SDS011;5310;48.638;9.060;2022-12-20T08:13:58;1.00;;;1.00;;
10523;SDS011;5310;48.638;9.060;2022-12-20T08:16:24;0.90;;;0.90;;
10523;SDS011;5310;48.638;9.060;2022-12-20T08:18:50;0.90;;;0.90;;
10523;SDS011;5310;48.638;9.060;2022-12-20T08:21:16;0.90;;;0.90;;
10523;SDS011;5310;48.638;9.060;2022-12-20T08:23:41;1.00;;;1.00;;
10523;SDS011;5310;48.638;9.060;2022-12-20T08:26:07;0.93;;;0.93;;
10523;SDS011;5310;48.638;9.060;2022-12-20T08:28:32;1.00;;;1.00;;
10523;SDS011;5310;48.638;9.060;2022-12-20T08:30:59;1.00;;;1.00;;
10523;SDS011;5310;48.638;9.060;2022-12-20T08:33:26;1.00;;;1.00;;
10523;SDS011;5310;48.638;9.060;2022-12-20T08:35:58;1.00;;;1.00;;
10523;SDS011;5310;48.638;9.060;2022-12-20T08:38:26;1.00;;;1.00;;
10523;SDS011;5310;48.638;9.060;2022-12-20T08:40:52;1.00;;;1.00;;
10523;SDS011;5310;48.638;9.060;2022-12-20T08:43:18;1.00;;;1.00;;
10523;SDS011;5310;48.638;9.060;2022-12-20T08:45:43;1.00;;;1.00;;
10523;SDS011;5310;48.638;9.060;2022-12-20T08:48:09;0.93;;;0.93;;
10523;SDS011;5310;48.638;9.060;2022-12-20T08:50:35;1.00;;;1.00;;
10523;SDS011;5310;48.638;9.060;2022-12-20T08:53:01;1.00;;;1.00;;
10523;SDS011;5310;48.638;9.060;2022-12-20T08:55:27;1.00;;;1.00;;
10523;SDS011;5310;48.638;9.060;2022-12-20T08:57:53;0.90;;;0.90;;
10523;SDS011;5310;48.638;9.060;2022-12-20T09:00:19;1.00;;;1.00;;
10523;SDS011;5310;48.638;9.060;2022-12-20T09:02:44;0.90;;;0.90;;
10523;SDS011;5310;48.638;9.060;2022-12-20T09:05:12;1.00;;;1.00;;
10523;SDS011;5310;48.638;9.060;2022-12-20T09:07:37;1.00;;;1.00;;
10523;SDS011;5310;48.638;9.060;2022-12-20T09:10:03;0.90;;;0.90;;
10523;SDS011;5310;48.638;9.060;2022-12-20T09:12:29;0.90;;;0.90;;
10523;SDS011;5310;48.638;9.060;2022-12-20T09:14:55;1.00;;;1.00;;
10523;SDS011;5310;48.638;9.060;2022-12-20T09:17:21;0.90;;;0.90;;
10523;SDS011;5310;48.638;9.060;2022-12-20T09:19:47;1.00;;;1.00;;
10523;SDS011;5310;48.638;9.060;2022-12-20T09:22:13;1.00;;;1.00;;
10523;SDS011;5310;48.638;9.060;2022-12-20T09:24:39;1.00;;;1.00;;
10523;SDS011;5310;48.638;9.060;2022-12-20T09:27:05;1.00;;;1.00;;
10523;SDS011;5310;48.638;9.060;2022-12-20T09:29:31;1.10;;;1.10;;
10523;SDS011;5310;48.638;9.060;2022-12-20T09:31:57;1.00;;;1.00;;
10523;SDS011;5310;48.638;9.060;2022-12-20T09:34:23;1.00;;;1.00;;
10523;SDS011;5310;48.638;9.060;2022-12-20T09:36:49;1.00;;;1.00;;
10523;SDS011;5310;48.638;9.060;2022-12-20T09:39:14;1.07;;;1.07;;
10523;SDS011;5310;48.638;9.060;2022-12-20T09:41:41;1.00;;;1.00;;
10523;SDS011;5310;48.638;9.060;2022-12-20T09:44:13;1.00;;;1.00;;
10523;SDS011;5310;48.638;9.060;2022-12-20T09:46:43;1.00;;;1.00;;
10523;SDS011;5310;48.638;9.060;2022-12-20T09:49:16;1.00;;;1.00;;
10523;SDS011;5310;48.638;9.060;2022-12-20T09:54:39;1.00;;;1.00;;
10523;SDS011;5310;48.638;9.060;2022-12-20T09:57:46;0.80;;;0.80;;
10523;SDS011;5310;48.638;9.060;2022-12-20T10:00:21;1.00;;;1.00;;
10523;SDS011;5310;48.638;9.060;2022-12-20T10:02:47;1.00;;;1.00;;
10523;SDS011;5310;48.638;9.060;2022-12-20T10:05:14;1.00;;;1.00;;
10523;SDS011;5310;48.638;9.060;2022-12-20T10:07:57;1.00;;;1.00;;
10523;SDS011;5310;48.638;9.060;2022-12-20T10:16:12;1.00;;;1.00;;
10523;SDS011;5310;48.638;9.060;2022-12-20T10:19:02;1.00;;;1.00;;
10523;SDS011;5310;48.638;9.060;2022-12-20T10:22:03;0.90;;;0.90;;
10523;SDS011;5310;48.638;9.060;2022-12-20T10:24:42;0.90;;;0.90;;
10523;SDS011;5310;48.638;9.060;2022-12-20T10:27:14;0.90;;;0.90;;
10523;SDS011;5310;48.638;9.060;2022-12-20T10:29:42;0.90;;;0.90;;
10523;SDS011;5310;48.638;9.060;2022-12-20T10:32:11;0.90;;;0.90;;
10523;SDS011;5310;48.638;9.060;2022-12-20T10:34:49;0.90;;;0.90;;
10523;SDS011;5310;48.638;9.060;2022-12-20T10:37:19;1.00;;;1.00;;
10523;SDS011;5310;48.638;9.060;2022-12-20T10:39:46;1.00;;;1.00;;
10523;SDS011;5310;48.638;9.060;2022-12-20T10:42:23;1.00;;;1.00;;
10523;SDS011;5310;48.638;9.060;2022-12-20T10:45:02;1.00;;;1.00;;
10523;SDS011;5310;48.638;9.060;2022-12-20T10:47:43;1.00;;;1.00;;
10523;SDS011;5310;48.638;9.060;2022-12-20T10:52:41;0.97;;;0.97;;
10523;SDS011;5310;48.638;9.060;2022-12-20T10:58:04;0.90;;;0.90;;
10523;SDS011;5310;48.638;9.060;2022-12-20T11:00:37;0.83;;;0.83;;
10523;SDS011;5310;48.638;9.060;2022-12-20T11:05:38;0.90;;;0.90;;
10523;SDS011;5310;48.638;9.060;2022-12-20T11:10:38;0.90;;;0.90;;
10523;SDS011;5310;48.638;9.060;2022-12-20T11:13:04;1.00;;;1.00;;
10523;SDS011;5310;48.638;9.060;2022-12-20T11:15:34;0.90;;;0.90;;
10523;SDS011;5310;48.638;9.060;2022-12-20T11:18:14;0.90;;;0.90;;
10523;SDS011;5310;48.638;9.060;2022-12-20T11:21:58;0.90;;;0.90;;
10523;SDS011;5310;48.638;9.060;2022-12-20T11:24:05;0.90;;;0.90;;
10523;SDS011;5310;48.638;9.060;2022-12-20T11:26:42;0.90;;;0.90;;
10523;SDS011;5310;48.638;9.060;2022-12-20T11:35:00;0.90;;;0.90;;
10523;SDS011;5310;48.638;9.060;2022-12-20T11:38:00;0.90;;;0.90;;
10523;SDS011;5310;48.638;9.060;2022-12-20T11:40:32;0.90;;;0.90;;
10523;SDS011;5310;48.638;9.060;2022-12-20T11:53:35;1.00;;;1.00;;
10523;SDS011;5310;48.638;9.060;2022-12-20T11:56:07;0.93;;;0.93;;
10523;SDS011;5310;48.638;9.060;2022-12-20T12:01:06;0.90;;;0.90;;
10523;SDS011;5310;48.638;9.060;2022-12-20T12:03:37;0.90;;;0.90;;
10523;SDS011;5310;48.638;9.060;2022-12-20T12:06:20;0.83;;;0.83;;
10523;SDS011;5310;48.638;9.060;2022-12-20T12:08:52;0.90;;;0.90;;
10523;SDS011;5310;48.638;9.060;2022-12-20T12:11:39;0.90;;;0.90;;
10523;SDS011;5310;48.638;9.060;2022-12-20T12:14:48;0.80;;;0.80;;
10523;SDS011;5310;48.638;9.060;2022-12-20T12:23:11;0.93;;;0.93;;
10523;SDS011;5310;48.638;9.060;2022-12-20T12:25:47;0.90;;;0.90;;
10523;SDS011;5310;48.638;9.060;2022-12-20T12:28:13;0.90;;;0.90;;
10523;SDS011;5310;48.638;9.060;2022-12-20T12:30:40;1.00;;;1.00;;
10523;SDS011;5310;48.638;9.060;2022-12-20T12:33:19;0.90;;;0.90;;
10523;SDS011;5310;48.638;9.060;2022-12-20T12:35:56;0.80;;;0.80;;
10523;SDS011;5310;48.638;9.060;2022-12-20T12:38:45;0.90;;;0.90;;
10523;SDS011;5310;48.638;9.060;2022-12-20T12:41:28;0.90;;;0.90;;
10523;SDS011;5310;48.638;9.060;2022-12-20T12:43:59;1.00;;;1.00;;
10523;SDS011;5310;48.638;9.060;2022-12-20T12:46:54;0.90;;;0.90;;
10523;SDS011;5310;48.638;9.060;2022-12-20T12:49:25;0.90;;;0.90;;
10523;SDS011;5310;48.638;9.060;2022-12-20T12:51:54;0.90;;;0.90;;
10523;SDS011;5310;48.638;9.060;2022-12-20T12:54:25;1.00;;;1.00;;
10523;SDS011;5310;48.638;9.060;2022-12-20T12:56:51;0.90;;;0.90;;
10523;SDS011;5310;48.638;9.060;2022-12-20T13:04:30;0.90;;;0.90;;
10523;SDS011;5310;48.638;9.060;2022-12-20T13:07:25;0.90;;;0.90;;
10523;SDS011;5310;48.638;9.060;2022-12-20T13:09:57;0.87;;;0.87;;
10523;SDS011;5310;48.638;9.060;2022-12-20T13:15:46;0.77;;;0.77;;
10523;SDS011;5310;48.638;9.060;2022-12-20T13:25:37;0.90;;;0.90;;
10523;SDS011;5310;48.638;9.060;2022-12-20T13:30:42;0.90;;;0.90;;
10523;SDS011;5310;48.638;9.060;2022-12-20T13:33:22;0.90;;;0.90;;
10523;SDS011;5310;48.638;9.060;2022-12-20T13:36:03;1.00;;;1.00;;
10523;SDS011;5310;48.638;9.060;2022-12-20T13:40:56;0.90;;;0.90;;
10523;SDS011;5310;48.638;9.060;2022-12-20T13:43:25;0.80;;;0.80;;
10523;SDS011;5310;48.638;9.060;2022-12-20T13:51:02;0.80;;;0.80;;
10523;SDS011;5310;48.638;9.060;2022-12-20T13:53:28;1.00;;;1.00;;
10523;SDS011;5310;48.638;9.060;2022-12-20T13:55:55;1.00;;;1.00;;
10523;SDS011;5310;48.638;9.060;2022-12-20T14:00:47;0.90;;;0.90;;
10523;SDS011;5310;48.638;9.060;2022-12-20T14:03:16;0.90;;;0.90;;
10523;SDS011;5310;48.638;9.060;2022-12-20T14:05:43;0.90;;;0.90;;
10523;SDS011;5310;48.638;9.060;2022-12-20T14:08:13;0.97;;;0.97;;
10523;SDS011;5310;48.638;9.060;2022-12-20T14:10:40;0.90;;;0.90;;
10523;SDS011;5310;48.638;9.060;2022-12-20T14:15:49;1.00;;;1.00;;
10523;SDS011;5310;48.638;9.060;2022-12-20T14:20:45;0.80;;;0.80;;
10523;SDS011;5310;48.638;9.060;2022-12-20T14:23:18;0.80;;;0.80;;
10523;SDS011;5310;48.638;9.060;2022-12-20T14:31:00;1.00;;;1.00;;
10523;SDS011;5310;48.638;9.060;2022-12-20T14:33:33;1.00;;;1.00;;
10523;SDS011;5310;48.638;9.060;2022-12-20T14:38:41;0.90;;;0.90;;
10523;SDS011;5310;48.638;9.060;2022-12-20T14:46:32;0.90;;;0.90;;
10523;SDS011;5310;48.638;9.060;2022-12-20T14:51:46;0.87;;;0.87;;
10523;SDS011;5310;48.638;9.060;2022-12-20T14:54:17;1.00;;;1.00;;
10523;SDS011;5310;48.638;9.060;2022-12-20T14:56:48;0.90;;;0.90;;
10523;SDS011;5310;48.638;9.060;2022-12-20T14:59:16;0.90;;;0.90;;
10523;SDS011;5310;48.638;9.060;2022-12-20T15:01:48;0.93;;;0.93;;
10523;SDS011;5310;48.638;9.060;2022-12-20T15:04:30;0.90;;;0.90;;
10523;SDS011;5310;48.638;9.060;2022-12-20T15:06:57;1.00;;;1.00;;
10523;SDS011;5310;48.638;9.060;2022-12-20T15:09:27;0.90;;;0.90;;
10523;SDS011;5310;48.638;9.060;2022-12-20T15:11:53;0.90;;;0.90;;
10523;SDS011;5310;48.638;9.060;2022-12-20T15:16:46;0.90;;;0.90;;
10523;SDS011;5310;48.638;9.060;2022-12-20T15:19:13;0.90;;;0.90;;
10523;SDS011;5310;48.638;9.060;2022-12-20T15:21:42;0.90;;;0.90;;
10523;SDS011;5310;48.638;9.060;2022-12-20T15:24:09;0.90;;;0.90;;
10523;SDS011;5310;48.638;9.060;2022-12-20T15:26:37;1.00;;;1.00;;
10523;SDS011;5310;48.638;9.060;2022-12-20T15:29:03;1.00;;;1.00;;
10523;SDS011;5310;48.638;9.060;2022-12-20T15:31:29;1.00;;;1.00;;
10523;SDS011;5310;48.638;9.060;2022-12-20T15:33:59;0.90;;;0.90;;
10523;SDS011;5310;48.638;9.060;2022-12-20T15:36:29;1.00;;;1.00;;
10523;SDS011;5310;48.638;9.060;2022-12-20T15:38:57;0.80;;;0.80;;
10523;SDS011;5310;48.638;9.060;2022-12-20T15:41:30;0.90;;;0.90;;
10523;SDS011;5310;48.638;9.060;2022-12-20T15:44:06;0.93;;;0.93;;
10523;SDS011;5310;48.638;9.060;2022-12-20T15:46:38;0.93;;;0.93;;
10523;SDS011;5310;48.638;9.060;2022-12-20T15:49:04;0.90;;;0.90;;
10523;SDS011;5310;48.638;9.060;2022-12-20T15:51:33;1.00;;;1.00;;
10523;SDS011;5310;48.638;9.060;2022-12-20T15:54:02;0.90;;;0.90;;
10523;SDS011;5310;48.638;9.060;2022-12-20T15:56:29;0.90;;;0.90;;
10523;SDS011;5310;48.638;9.060;2022-12-20T15:58:54;1.00;;;1.00;;
10523;SDS011;5310;48.638;9.060;2022-12-20T16:01:28;0.90;;;0.90;;
10523;SDS011;5310;48.638;9.060;2022-12-20T16:03:59;1.00;;;1.00;;
10523;SDS011;5310;48.638;9.060;2022-12-20T16:06:25;0.90;;;0.90;;
10523;SDS011;5310;48.638;9.060;2022-12-20T16:08:51;1.00;;;1.00;;
10523;SDS011;5310;48.638;9.060;2022-12-20T16:13:55;1.00;;;1.00;;
10523;SDS011;5310;48.638;9.060;2022-12-20T16:16:23;0.97;;;0.97;;
10523;SDS011;5310;48.638;9.060;2022-12-20T16:18:51;1.00;;;1.00;;
10523;SDS011;5310;48.638;9.060;2022-12-20T16:21:21;1.00;;;1.00;;
10523;SDS011;5310;48.638;9.060;2022-12-20T16:23:57;1.00;;;1.00;;
10523;SDS011;5310;48.638;9.060;2022-12-20T16:26:23;0.90;;;0.90;;
10523;SDS011;5310;48.638;9.060;2022-12-20T16:28:50;0.90;;;0.90;;
10523;SDS011;5310;48.638;9.060;2022-12-20T16:31:24;0.90;;;0.90;;
10523;SDS011;5310;48.638;9.060;2022-12-20T16:33:58;1.00;;;1.00;;
10523;SDS011;5310;48.638;9.060;2022-12-20T16:36:25;1.00;;;1.00;;
10523;SDS011;5310;48.638;9.060;2022-12-20T16:38:51;0.93;;;0.93;;
10523;SDS011;5310;48.638;9.060;2022-12-20T16:41:28;1.00;;;1.00;;
10523;SDS011;5310;48.638;9.060;2022-12-20T16:43:56;1.00;;;1.00;;
10523;SDS011;5310;48.638;9.060;2022-12-20T16:46:24;1.00;;;1.00;;
10523;SDS011;5310;48.638;9.060;2022-12-20T16:48:51;1.00;;;1.00;;
10523;SDS011;5310;48.638;9.060;2022-12-20T16:51:21;1.00;;;1.00;;
10523;SDS011;5310;48.638;9.060;2022-12-20T16:56:40;0.90;;;0.90;;
10523;SDS011;5310;48.638;9.060;2022-12-20T16:59:06;1.00;;;1.00;;
10523;SDS011;5310;48.638;9.060;2022-12-20T17:01:32;0.90;;;0.90;;
10523;SDS011;5310;48.638;9.060;2022-12-20T17:03:59;1.00;;;1.00;;
10523;SDS011;5310;48.638;9.060;2022-12-20T17:06:25;1.00;;;1.00;;
10523;SDS011;5310;48.638;9.060;2022-12-20T17:08:51;1.00;;;1.00;;
10523;SDS011;5310;48.638;9.060;2022-12-20T17:11:22;1.00;;;1.00;;
10523;SDS011;5310;48.638;9.060;2022-12-20T17:13:53;1.00;;;1.00;;